sensor_id;sensor_type;location;lat;lon;timestamp;pressure;altitude;pressure_sealevel;temperature;humidity
16834;BME280;8533;48.426;10.868;2023-05-23T00:00:29;95848.47;;;16.49;100.00
16834;BME280;8533;48.426;10.868;2023-05-23T00:02:57;95837.09;;;16.35;100.00
16834;BME280;8533;48.426;10.868;2023-05-23T00:05:22;95838.03;;;16.25;100.00
16834;BME280;8533;48.426;10.868;2023-05-23T00:07:48;95763.34;;;15.74;100.00
16834;BME280;8533;48.426;10.868;2023-05-23T00:10:13;95848.03;;;16.28;100.00
16834;BME280;8533;48.426;10.868;2023-05-23T00:12:38;95743.56;;;15.57;100.00
16834;BME280;8533;48.426;10.868;2023-05-23T00:15:07;95869.72;;;16.25;100.00
16834;BME280;8533;48.426;10.868;2023-05-23T00:17:32;95870.22;;;16.27;100.00
16834;BME280;8533;48.426;10.868;2023-05-23T00:19:58;95790.22;;;15.76;100.00
16834;BME280;8533;48.426;10.868;2023-05-23T00:22:23;95877.53;;;16.30;100.00
16834;BME280;8533;48.426;10.868;2023-05-23T00:24:48;95870.78;;;16.24;100.00
16834;BME280;8533;48.426;10.868;2023-05-23T00:27:14;95866.66;;;16.18;100.00
16834;BME280;8533;48.426;10.868;2023-05-23T00:29:39;95885.00;;;16.28;100.00
16834;BME280;8533;48.426;10.868;2023-05-23T00:32:04;95879.47;;;16.25;100.00
16834;BME280;8533;48.426;10.868;2023-05-23T00:34:30;95876.56;;;16.26;100.00
16834;BME280;8533;48.426;10.868;2023-05-23T00:36:55;95885.63;;;16.20;100.00
16834;BME280;8533;48.426;10.868;2023-05-23T00:39:22;95866.75;;;16.13;100.00
16834;BME280;8533;48.426;10.868;2023-05-23T00:41:48;95880.91;;;16.17;100.00
16834;BME280;8533;48.426;10.868;2023-05-23T00:44:14;95870.63;;;16.16;100.00
16834;BME280;8533;48.426;10.868;2023-05-23T00:46:40;95873.50;;;16.19;100.00
16834;BME280;8533;48.426;10.868;2023-05-23T00:49:08;95886.34;;;16.26;100.00
16834;BME280;8533;48.426;10.868;2023-05-23T00:51:34;95874.00;;;16.21;100.00
16834;BME280;8533;48.426;10.868;2023-05-23T00:54:00;95852.91;;;16.02;100.00
16834;BME280;8533;48.426;10.868;2023-05-23T00:56:28;95883.56;;;16.17;100.00
16834;BME280;8533;48.426;10.868;2023-05-23T00:58:54;95879.44;;;16.11;100.00
16834;BME280;8533;48.426;10.868;2023-05-23T01:01:20;95865.31;;;16.02;100.00
16834;BME280;8533;48.426;10.868;2023-05-23T01:03:46;95886.84;;;16.09;100.00
16834;BME280;8533;48.426;10.868;2023-05-23T01:06:12;95871.72;;;15.96;100.00
16834;BME280;8533;48.426;10.868;2023-05-23T01:08:38;95887.25;;;15.97;100.00
16834;BME280;8533;48.426;10.868;2023-05-23T01:11:11;95878.22;;;15.85;100.00
16834;BME280;8533;48.426;10.868;2023-05-23T01:13:42;95801.38;;;15.30;100.00
16834;BME280;8533;48.426;10.868;2023-05-23T01:16:39;95887.47;;;15.82;100.00
16834;BME280;8533;48.426;10.868;2023-05-23T01:21:54;95879.97;;;15.71;100.00
16834;BME280;8533;48.426;10.868;2023-05-23T01:24:44;95901.06;;;15.71;100.00
16834;BME280;8533;48.426;10.868;2023-05-23T01:27:23;95890.91;;;15.59;100.00
16834;BME280;8533;48.426;10.868;2023-05-23T01:29:56;95930.97;;;15.61;100.00
16834;BME280;8533;48.426;10.868;2023-05-23T01:32:24;95847.75;;;15.31;100.00
16834;BME280;8533;48.426;10.868;2023-05-23T01:34:52;95895.38;;;15.63;100.00
16834;BME280;8533;48.426;10.868;2023-05-23T01:37:18;95897.41;;;15.67;100.00
16834;BME280;8533;48.426;10.868;2023-05-23T01:39:44;95903.47;;;15.67;100.00
16834;BME280;8533;48.426;10.868;2023-05-23T01:42:09;95887.44;;;15.63;100.00
16834;BME280;8533;48.426;10.868;2023-05-23T01:44:35;95889.22;;;15.68;100.00
16834;BME280;8533;48.426;10.868;2023-05-23T01:47:03;95836.16;;;15.32;100.00
16834;BME280;8533;48.426;10.868;2023-05-23T01:49:32;95874.13;;;15.55;100.00
16834;BME280;8533;48.426;10.868;2023-05-23T01:51:59;95887.16;;;15.65;100.00
16834;BME280;8533;48.426;10.868;2023-05-23T01:54:25;95888.72;;;15.66;100.00
16834;BME280;8533;48.426;10.868;2023-05-23T01:56:51;95899.78;;;15.68;100.00
16834;BME280;8533;48.426;10.868;2023-05-23T01:59:16;95907.41;;;15.70;100.00
16834;BME280;8533;48.426;10.868;2023-05-23T02:01:41;95816.22;;;15.21;100.00
16834;BME280;8533;48.426;10.868;2023-05-23T02:04:07;95840.84;;;15.35;100.00
16834;BME280;8533;48.426;10.868;2023-05-23T02:06:32;95897.94;;;15.69;100.00
16834;BME280;8533;48.426;10.868;2023-05-23T02:08:58;95891.94;;;15.63;100.00
16834;BME280;8533;48.426;10.868;2023-05-23T02:11:23;95874.63;;;15.52;100.00
16834;BME280;8533;48.426;10.868;2023-05-23T02:13:49;95902.22;;;15.64;100.00
16834;BME280;8533;48.426;10.868;2023-05-23T02:16:14;95889.66;;;15.56;100.00
16834;BME280;8533;48.426;10.868;2023-05-23T02:18:39;95884.47;;;15.46;100.00
16834;BME280;8533;48.426;10.868;2023-05-23T02:21:05;95893.63;;;15.49;100.00
16834;BME280;8533;48.426;10.868;2023-05-23T02:23:30;95900.22;;;15.51;100.00
16834;BME280;8533;48.426;10.868;2023-05-23T02:25:55;95850.56;;;15.16;100.00
16834;BME280;8533;48.426;10.868;2023-05-23T02:28:21;95893.00;;;15.38;100.00
16834;BME280;8533;48.426;10.868;2023-05-23T02:30:46;95888.28;;;15.35;100.00
16834;BME280;8533;48.426;10.868;2023-05-23T02:33:11;95877.28;;;15.28;100.00
16834;BME280;8533;48.426;10.868;2023-05-23T02:35:37;95880.72;;;15.28;100.00
16834;BME280;8533;48.426;10.868;2023-05-23T02:38:02;95916.44;;;15.40;100.00
16834;BME280;8533;48.426;10.868;2023-05-23T02:40:27;95836.88;;;14.90;100.00
16834;BME280;8533;48.426;10.868;2023-05-23T02:42:53;95903.13;;;15.26;100.00
16834;BME280;8533;48.426;10.868;2023-05-23T02:45:21;95916.75;;;15.33;100.00
16834;BME280;8533;48.426;10.868;2023-05-23T02:47:47;95919.97;;;15.30;100.00
16834;BME280;8533;48.426;10.868;2023-05-23T02:50:12;95926.28;;;15.29;100.00
16834;BME280;8533;48.426;10.868;2023-05-23T02:52:38;95910.41;;;15.10;100.00
16834;BME280;8533;48.426;10.868;2023-05-23T02:55:03;95908.63;;;15.06;100.00
16834;BME280;8533;48.426;10.868;2023-05-23T02:57:29;95918.56;;;15.09;100.00
16834;BME280;8533;48.426;10.868;2023-05-23T02:59:54;95889.09;;;14.83;100.00
16834;BME280;8533;48.426;10.868;2023-05-23T03:02:19;95924.44;;;15.01;100.00
16834;BME280;8533;48.426;10.868;2023-05-23T03:04:45;95907.66;;;14.97;100.00
16834;BME280;8533;48.426;10.868;2023-05-23T03:07:11;95871.28;;;14.70;100.00
16834;BME280;8533;48.426;10.868;2023-05-23T03:09:37;95931.28;;;15.02;100.00
16834;BME280;8533;48.426;10.868;2023-05-23T03:12:03;95915.59;;;14.92;100.00
16834;BME280;8533;48.426;10.868;2023-05-23T03:14:29;95925.25;;;15.01;100.00
16834;BME280;8533;48.426;10.868;2023-05-23T03:16:54;95912.91;;;14.97;100.00
16834;BME280;8533;48.426;10.868;2023-05-23T03:19:19;95880.94;;;14.79;100.00
16834;BME280;8533;48.426;10.868;2023-05-23T03:21:45;95930.50;;;15.01;100.00
16834;BME280;8533;48.426;10.868;2023-05-23T03:24:10;95919.19;;;15.01;100.00
16834;BME280;8533;48.426;10.868;2023-05-23T03:26:35;95914.69;;;15.01;100.00
16834;BME280;8533;48.426;10.868;2023-05-23T03:29:01;95799.03;;;14.23;100.00
16834;BME280;8533;48.426;10.868;2023-05-23T03:31:26;95856.34;;;14.60;100.00
16834;BME280;8533;48.426;10.868;2023-05-23T03:33:51;95910.09;;;14.88;100.00
16834;BME280;8533;48.426;10.868;2023-05-23T03:36:17;95917.41;;;14.96;100.00
16834;BME280;8533;48.426;10.868;2023-05-23T03:38:43;95884.16;;;14.71;100.00
16834;BME280;8533;48.426;10.868;2023-05-23T03:41:08;95930.88;;;14.89;100.00
16834;BME280;8533;48.426;10.868;2023-05-23T03:43:33;95920.63;;;14.88;100.00
16834;BME280;8533;48.426;10.868;2023-05-23T03:45:58;95901.09;;;14.65;100.00
16834;BME280;8533;48.426;10.868;2023-05-23T03:48:24;95935.97;;;14.81;100.00
16834;BME280;8533;48.426;10.868;2023-05-23T03:50:49;95919.25;;;14.67;100.00
16834;BME280;8533;48.426;10.868;2023-05-23T03:53:14;95911.38;;;14.62;100.00
16834;BME280;8533;48.426;10.868;2023-05-23T04:11:33;95916.94;;;14.55;100.00
16834;BME280;8533;48.426;10.868;2023-05-23T04:13:58;95933.19;;;14.67;100.00
16834;BME280;8533;48.426;10.868;2023-05-23T04:16:23;95934.19;;;14.71;100.00
16834;BME280;8533;48.426;10.868;2023-05-23T04:18:49;95897.53;;;14.46;100.00
16834;BME280;8533;48.426;10.868;2023-05-23T04:21:15;95925.03;;;14.64;100.00
16834;BME280;8533;48.426;10.868;2023-05-23T04:23:41;95941.22;;;14.81;100.00
16834;BME280;8533;48.426;10.868;2023-05-23T04:26:06;95921.56;;;14.68;100.00
16834;BME280;8533;48.426;10.868;2023-05-23T04:28:33;95948.34;;;14.80;100.00
16834;BME280;8533;48.426;10.868;2023-05-23T04:30:58;95918.91;;;14.73;100.00
16834;BME280;8533;48.426;10.868;2023-05-23T04:33:23;95934.34;;;14.85;100.00
16834;BME280;8533;48.426;10.868;2023-05-23T04:35:49;95821.19;;;14.12;100.00
16834;BME280;8533;48.426;10.868;2023-05-23T04:38:15;95964.72;;;15.06;100.00
16834;BME280;8533;48.426;10.868;2023-05-23T04:40:41;95925.94;;;14.83;100.00
16834;BME280;8533;48.426;10.868;2023-05-23T04:43:06;95976.00;;;15.12;100.00
16834;BME280;8533;48.426;10.868;2023-05-23T04:45:34;95967.56;;;15.10;100.00
16834;BME280;8533;48.426;10.868;2023-05-23T04:48:01;95967.56;;;15.10;100.00
16834;BME280;8533;48.426;10.868;2023-05-23T04:50:26;95958.66;;;15.06;100.00
16834;BME280;8533;48.426;10.868;2023-05-23T04:52:52;95966.19;;;15.17;100.00
16834;BME280;8533;48.426;10.868;2023-05-23T04:55:17;95962.56;;;15.13;100.00
16834;BME280;8533;48.426;10.868;2023-05-23T04:57:44;95979.53;;;15.26;100.00
16834;BME280;8533;48.426;10.868;2023-05-23T05:00:09;95939.09;;;15.12;100.00
16834;BME280;8533;48.426;10.868;2023-05-23T05:02:36;95982.63;;;15.33;100.00
16834;BME280;8533;48.426;10.868;2023-05-23T05:05:02;95997.84;;;15.41;100.00
16834;BME280;8533;48.426;10.868;2023-05-23T05:07:28;95993.34;;;15.47;100.00
16834;BME280;8533;48.426;10.868;2023-05-23T05:09:54;95995.13;;;15.51;100.00
16834;BME280;8533;48.426;10.868;2023-05-23T05:12:19;95963.66;;;15.36;100.00
16834;BME280;8533;48.426;10.868;2023-05-23T05:14:44;95983.72;;;15.61;100.00
16834;BME280;8533;48.426;10.868;2023-05-23T05:17:10;95942.28;;;15.38;100.00
16834;BME280;8533;48.426;10.868;2023-05-23T05:19:35;95979.75;;;15.63;100.00
16834;BME280;8533;48.426;10.868;2023-05-23T05:22:00;95975.97;;;15.70;100.00
16834;BME280;8533;48.426;10.868;2023-05-23T05:24:26;95989.72;;;15.90;100.00
16834;BME280;8533;48.426;10.868;2023-05-23T05:26:52;95986.78;;;15.92;100.00
16834;BME280;8533;48.426;10.868;2023-05-23T05:29:18;95994.66;;;15.97;100.00
16834;BME280;8533;48.426;10.868;2023-05-23T05:31:43;96004.00;;;16.08;100.00
16834;BME280;8533;48.426;10.868;2023-05-23T05:34:09;95863.38;;;15.22;100.00
16834;BME280;8533;48.426;10.868;2023-05-23T05:36:35;95992.91;;;16.11;100.00
16834;BME280;8533;48.426;10.868;2023-05-23T05:39:00;96013.03;;;16.26;100.00
16834;BME280;8533;48.426;10.868;2023-05-23T05:41:26;95980.66;;;16.20;100.00
16834;BME280;8533;48.426;10.868;2023-05-23T05:43:51;95995.69;;;16.38;100.00
16834;BME280;8533;48.426;10.868;2023-05-23T05:46:16;96014.00;;;16.54;100.00
16834;BME280;8533;48.426;10.868;2023-05-23T05:48:42;96009.16;;;16.61;100.00
16834;BME280;8533;48.426;10.868;2023-05-23T05:51:07;96009.22;;;16.74;100.00
16834;BME280;8533;48.426;10.868;2023-05-23T05:53:32;95939.19;;;16.39;100.00
16834;BME280;8533;48.426;10.868;2023-05-23T05:55:58;96005.00;;;16.92;100.00
16834;BME280;8533;48.426;10.868;2023-05-23T05:58:23;96028.94;;;17.14;100.00
16834;BME280;8533;48.426;10.868;2023-05-23T06:00:49;96021.94;;;17.24;100.00
16834;BME280;8533;48.426;10.868;2023-05-23T06:03:14;96018.91;;;17.30;100.00
16834;BME280;8533;48.426;10.868;2023-05-23T06:05:40;96023.75;;;17.42;100.00
16834;BME280;8533;48.426;10.868;2023-05-23T06:08:06;96005.91;;;17.34;100.00
16834;BME280;8533;48.426;10.868;2023-05-23T06:10:31;95994.88;;;17.13;100.00
16834;BME280;8533;48.426;10.868;2023-05-23T06:12:57;96035.69;;;17.39;100.00
16834;BME280;8533;48.426;10.868;2023-05-23T06:15:23;96000.94;;;17.13;100.00
16834;BME280;8533;48.426;10.868;2023-05-23T06:17:48;96024.00;;;17.27;100.00
16834;BME280;8533;48.426;10.868;2023-05-23T06:20:13;96042.94;;;17.34;100.00
16834;BME280;8533;48.426;10.868;2023-05-23T06:22:39;96046.13;;;17.31;100.00
16834;BME280;8533;48.426;10.868;2023-05-23T06:25:05;96053.28;;;17.30;100.00
16834;BME280;8533;48.426;10.868;2023-05-23T06:27:31;96013.66;;;17.11;100.00
16834;BME280;8533;48.426;10.868;2023-05-23T06:29:56;96050.94;;;17.29;100.00
16834;BME280;8533;48.426;10.868;2023-05-23T06:32:21;96040.94;;;17.26;100.00
16834;BME280;8533;48.426;10.868;2023-05-23T06:34:47;96044.72;;;17.20;100.00
16834;BME280;8533;48.426;10.868;2023-05-23T06:37:12;96018.53;;;17.04;100.00
16834;BME280;8533;48.426;10.868;2023-05-23T06:39:37;96035.81;;;17.15;100.00
16834;BME280;8533;48.426;10.868;2023-05-23T06:42:03;96026.31;;;17.14;100.00
16834;BME280;8533;48.426;10.868;2023-05-23T06:44:28;96055.81;;;17.22;100.00
16834;BME280;8533;48.426;10.868;2023-05-23T06:46:54;96045.03;;;17.18;100.00
16834;BME280;8533;48.426;10.868;2023-05-23T06:49:22;96047.59;;;17.23;100.00
16834;BME280;8533;48.426;10.868;2023-05-23T06:51:47;96017.56;;;17.00;100.00
16834;BME280;8533;48.426;10.868;2023-05-23T06:54:13;96061.50;;;17.29;100.00
16834;BME280;8533;48.426;10.868;2023-05-23T06:56:38;96025.63;;;17.09;100.00
16834;BME280;8533;48.426;10.868;2023-05-23T06:59:03;96042.09;;;17.20;100.00
16834;BME280;8533;48.426;10.868;2023-05-23T07:01:29;96039.38;;;17.25;100.00
16834;BME280;8533;48.426;10.868;2023-05-23T07:03:54;96003.19;;;17.06;100.00
16834;BME280;8533;48.426;10.868;2023-05-23T07:06:20;96030.16;;;17.22;100.00
16834;BME280;8533;48.426;10.868;2023-05-23T07:08:45;96053.69;;;17.37;100.00
16834;BME280;8533;48.426;10.868;2023-05-23T07:11:10;96041.94;;;17.30;100.00
16834;BME280;8533;48.426;10.868;2023-05-23T07:13:36;95998.72;;;17.21;100.00
16834;BME280;8533;48.426;10.868;2023-05-23T07:16:01;96033.47;;;17.60;100.00
16834;BME280;8533;48.426;10.868;2023-05-23T07:18:27;96022.88;;;17.60;100.00
16834;BME280;8533;48.426;10.868;2023-05-23T07:20:52;96064.13;;;17.93;100.00
16834;BME280;8533;48.426;10.868;2023-05-23T07:23:17;96002.81;;;17.59;100.00
16834;BME280;8533;48.426;10.868;2023-05-23T07:25:42;96051.09;;;17.97;100.00
16834;BME280;8533;48.426;10.868;2023-05-23T07:28:08;96019.81;;;17.85;100.00
16834;BME280;8533;48.426;10.868;2023-05-23T07:30:34;96046.19;;;18.04;100.00
16834;BME280;8533;48.426;10.868;2023-05-23T07:32:59;96031.28;;;17.95;100.00
16834;BME280;8533;48.426;10.868;2023-05-23T07:35:25;96002.47;;;17.66;100.00
16834;BME280;8533;48.426;10.868;2023-05-23T07:37:54;96056.78;;;17.90;100.00
16834;BME280;8533;48.426;10.868;2023-05-23T07:40:20;96028.03;;;17.70;100.00
16834;BME280;8533;48.426;10.868;2023-05-23T07:42:46;96029.41;;;17.81;100.00
16834;BME280;8533;48.426;10.868;2023-05-23T07:45:12;96030.00;;;17.78;100.00
16834;BME280;8533;48.426;10.868;2023-05-23T07:47:37;96040.13;;;17.90;100.00
16834;BME280;8533;48.426;10.868;2023-05-23T07:50:03;96052.84;;;17.88;100.00
16834;BME280;8533;48.426;10.868;2023-05-23T07:52:29;96067.16;;;18.01;100.00
16834;BME280;8533;48.426;10.868;2023-05-23T07:54:56;95866.88;;;16.73;100.00
16834;BME280;8533;48.426;10.868;2023-05-23T07:57:21;96058.94;;;18.16;100.00
16834;BME280;8533;48.426;10.868;2023-05-23T07:59:48;95918.44;;;17.30;100.00
16834;BME280;8533;48.426;10.868;2023-05-23T08:02:14;96059.63;;;18.21;100.00
16834;BME280;8533;48.426;10.868;2023-05-23T08:04:39;96070.72;;;18.23;100.00
16834;BME280;8533;48.426;10.868;2023-05-23T08:07:05;96044.44;;;18.13;100.00
16834;BME280;8533;48.426;10.868;2023-05-23T08:09:32;96064.03;;;18.26;100.00
16834;BME280;8533;48.426;10.868;2023-05-23T08:11:57;96066.00;;;18.20;100.00
16834;BME280;8533;48.426;10.868;2023-05-23T08:14:23;96056.88;;;18.13;100.00
16834;BME280;8533;48.426;10.868;2023-05-23T08:16:48;96051.47;;;18.18;100.00
16834;BME280;8533;48.426;10.868;2023-05-23T08:19:13;96056.38;;;18.24;100.00
16834;BME280;8533;48.426;10.868;2023-05-23T08:21:39;96059.91;;;18.34;100.00
16834;BME280;8533;48.426;10.868;2023-05-23T08:24:04;95954.44;;;17.72;100.00
16834;BME280;8533;48.426;10.868;2023-05-23T08:26:29;96056.06;;;18.26;100.00
16834;BME280;8533;48.426;10.868;2023-05-23T08:28:59;96063.47;;;18.56;100.00
16834;BME280;8533;48.426;10.868;2023-05-23T08:31:27;96065.56;;;18.54;100.00
16834;BME280;8533;48.426;10.868;2023-05-23T08:33:52;96069.00;;;18.55;100.00
16834;BME280;8533;48.426;10.868;2023-05-23T08:36:17;96076.47;;;18.66;100.00
16834;BME280;8533;48.426;10.868;2023-05-23T08:38:43;96059.91;;;18.47;100.00
16834;BME280;8533;48.426;10.868;2023-05-23T08:41:15;96095.81;;;18.53;100.00
16834;BME280;8533;48.426;10.868;2023-05-23T08:43:42;96090.78;;;18.52;100.00
16834;BME280;8533;48.426;10.868;2023-05-23T08:46:08;96086.00;;;18.54;100.00
16834;BME280;8533;48.426;10.868;2023-05-23T08:48:33;96065.00;;;18.44;100.00
16834;BME280;8533;48.426;10.868;2023-05-23T08:51:02;96090.63;;;18.48;100.00
16834;BME280;8533;48.426;10.868;2023-05-23T08:53:28;96070.72;;;18.23;100.00
16834;BME280;8533;48.426;10.868;2023-05-23T08:55:55;96084.75;;;18.24;100.00
16834;BME280;8533;48.426;10.868;2023-05-23T08:58:23;96102.16;;;18.25;100.00
16834;BME280;8533;48.426;10.868;2023-05-23T09:00:53;96038.53;;;17.89;100.00
16834;BME280;8533;48.426;10.868;2023-05-23T09:03:19;96096.31;;;18.14;100.00
16834;BME280;8533;48.426;10.868;2023-05-23T09:05:46;96085.91;;;18.18;100.00
16834;BME280;8533;48.426;10.868;2023-05-23T09:08:12;96088.34;;;18.28;100.00
16834;BME280;8533;48.426;10.868;2023-05-23T09:10:37;96099.22;;;18.54;100.00
16834;BME280;8533;48.426;10.868;2023-05-23T09:13:04;96092.78;;;18.60;100.00
16834;BME280;8533;48.426;10.868;2023-05-23T09:15:29;96080.47;;;18.78;100.00
16834;BME280;8533;48.426;10.868;2023-05-23T09:17:59;95993.59;;;18.25;100.00
16834;BME280;8533;48.426;10.868;2023-05-23T09:20:26;96087.41;;;19.23;100.00
16834;BME280;8533;48.426;10.868;2023-05-23T09:22:53;96095.69;;;19.66;100.00
16834;BME280;8533;48.426;10.868;2023-05-23T09:25:19;96091.69;;;19.77;100.00
16834;BME280;8533;48.426;10.868;2023-05-23T09:27:45;96066.41;;;19.80;99.93
16834;BME280;8533;48.426;10.868;2023-05-23T09:30:11;96087.75;;;20.37;96.91
16834;BME280;8533;48.426;10.868;2023-05-23T09:32:38;96046.06;;;20.06;95.50
16834;BME280;8533;48.426;10.868;2023-05-23T09:35:05;96027.19;;;20.16;93.92
16834;BME280;8533;48.426;10.868;2023-05-23T09:37:43;95921.03;;;19.77;90.42
16834;BME280;8533;48.426;10.868;2023-05-23T09:40:13;96051.13;;;20.99;87.68
16834;BME280;8533;48.426;10.868;2023-05-23T09:42:45;96079.94;;;21.31;86.06
16834;BME280;8533;48.426;10.868;2023-05-23T09:45:12;96022.31;;;20.84;86.71
16834;BME280;8533;48.426;10.868;2023-05-23T09:47:37;96067.22;;;21.11;87.77
16834;BME280;8533;48.426;10.868;2023-05-23T09:50:03;96047.66;;;21.33;84.92
16834;BME280;8533;48.426;10.868;2023-05-23T09:52:37;96056.00;;;21.87;83.72
16834;BME280;8533;48.426;10.868;2023-05-23T09:55:03;96036.59;;;21.78;81.93
16834;BME280;8533;48.426;10.868;2023-05-23T09:57:29;96078.25;;;21.82;79.96
16834;BME280;8533;48.426;10.868;2023-05-23T09:59:57;96072.38;;;21.33;82.70
16834;BME280;8533;48.426;10.868;2023-05-23T10:05:33;96073.81;;;21.31;85.20
16834;BME280;8533;48.426;10.868;2023-05-23T10:08:01;96087.13;;;21.40;84.36
16834;BME280;8533;48.426;10.868;2023-05-23T10:10:30;96077.56;;;21.30;85.57
16834;BME280;8533;48.426;10.868;2023-05-23T10:12:57;96102.75;;;21.15;86.70
16834;BME280;8533;48.426;10.868;2023-05-23T10:15:26;95893.78;;;19.54;88.48
16834;BME280;8533;48.426;10.868;2023-05-23T10:18:08;95987.16;;;20.13;86.53
16834;BME280;8533;48.426;10.868;2023-05-23T10:20:35;96065.63;;;21.02;85.73
16834;BME280;8533;48.426;10.868;2023-05-23T10:23:01;96066.25;;;21.50;84.42
16834;BME280;8533;48.426;10.868;2023-05-23T10:25:27;96039.69;;;21.24;83.77
16834;BME280;8533;48.426;10.868;2023-05-23T10:27:55;96091.94;;;21.12;86.85
16834;BME280;8533;48.426;10.868;2023-05-23T10:30:27;96069.72;;;20.90;86.92
16834;BME280;8533;48.426;10.868;2023-05-23T10:32:54;95945.41;;;19.96;88.10
16834;BME280;8533;48.426;10.868;2023-05-23T10:37:55;96074.97;;;20.47;92.97
16834;BME280;8533;48.426;10.868;2023-05-23T10:45:20;96067.94;;;22.27;80.28
16834;BME280;8533;48.426;10.868;2023-05-23T10:47:50;95937.97;;;21.19;81.13
16834;BME280;8533;48.426;10.868;2023-05-23T10:50:33;96072.69;;;21.41;81.00
16834;BME280;8533;48.426;10.868;2023-05-23T10:53:00;96075.53;;;21.36;82.63
16834;BME280;8533;48.426;10.868;2023-05-23T10:55:33;96048.72;;;21.49;82.21
16834;BME280;8533;48.426;10.868;2023-05-23T10:58:15;96034.50;;;21.37;84.23
16834;BME280;8533;48.426;10.868;2023-05-23T11:00:50;96014.19;;;20.80;83.63
16834;BME280;8533;48.426;10.868;2023-05-23T11:03:16;96051.72;;;21.48;81.44
16834;BME280;8533;48.426;10.868;2023-05-23T11:05:47;96064.75;;;21.96;78.91
16834;BME280;8533;48.426;10.868;2023-05-23T11:08:18;96002.03;;;21.60;80.52
16834;BME280;8533;48.426;10.868;2023-05-23T11:11:01;96017.38;;;21.63;80.89
16834;BME280;8533;48.426;10.868;2023-05-23T11:13:53;96072.53;;;21.54;83.63
16834;BME280;8533;48.426;10.868;2023-05-23T11:16:40;96079.72;;;21.62;83.74
16834;BME280;8533;48.426;10.868;2023-05-23T11:21:44;96063.50;;;22.02;79.18
16834;BME280;8533;48.426;10.868;2023-05-23T11:24:10;96036.03;;;21.55;79.00
16834;BME280;8533;48.426;10.868;2023-05-23T11:26:35;96051.41;;;20.98;80.68
16834;BME280;8533;48.426;10.868;2023-05-23T11:29:01;96053.41;;;21.52;81.16
16834;BME280;8533;48.426;10.868;2023-05-23T11:31:28;96050.66;;;22.33;76.20
16834;BME280;8533;48.426;10.868;2023-05-23T11:33:54;96020.44;;;22.50;71.79
16834;BME280;8533;48.426;10.868;2023-05-23T11:36:20;96043.94;;;23.40;67.00
16834;BME280;8533;48.426;10.868;2023-05-23T11:38:47;96047.16;;;23.66;66.75
16834;BME280;8533;48.426;10.868;2023-05-23T11:41:13;96049.28;;;23.73;66.20
16834;BME280;8533;48.426;10.868;2023-05-23T11:43:49;96033.63;;;22.46;67.26
16834;BME280;8533;48.426;10.868;2023-05-23T11:46:15;95905.75;;;21.88;67.49
16834;BME280;8533;48.426;10.868;2023-05-23T11:48:47;96048.47;;;22.56;69.13
16834;BME280;8533;48.426;10.868;2023-05-23T11:51:13;96049.25;;;22.57;68.03
16834;BME280;8533;48.426;10.868;2023-05-23T11:53:39;96043.09;;;22.65;68.84
16834;BME280;8533;48.426;10.868;2023-05-23T11:56:04;96028.72;;;21.09;78.46
16834;BME280;8533;48.426;10.868;2023-05-23T11:58:33;96039.94;;;21.57;75.74
16834;BME280;8533;48.426;10.868;2023-05-23T12:01:00;96003.66;;;21.44;74.80
16834;BME280;8533;48.426;10.868;2023-05-23T12:03:26;96037.47;;;21.90;71.63
16834;BME280;8533;48.426;10.868;2023-05-23T12:05:53;96040.09;;;21.61;72.78
16834;BME280;8533;48.426;10.868;2023-05-23T12:08:19;96006.94;;;21.32;76.64
16834;BME280;8533;48.426;10.868;2023-05-23T12:10:58;95993.97;;;21.86;73.76
16834;BME280;8533;48.426;10.868;2023-05-23T12:13:25;96031.09;;;21.83;70.95
16834;BME280;8533;48.426;10.868;2023-05-23T12:15:54;96033.00;;;21.74;72.02
16834;BME280;8533;48.426;10.868;2023-05-23T12:18:20;96044.84;;;21.38;75.83
16834;BME280;8533;48.426;10.868;2023-05-23T12:20:48;96013.72;;;20.95;78.03
16834;BME280;8533;48.426;10.868;2023-05-23T12:23:21;96049.38;;;21.12;74.77
16834;BME280;8533;48.426;10.868;2023-05-23T12:25:53;96012.75;;;20.57;77.75
16834;BME280;8533;48.426;10.868;2023-05-23T12:28:40;95871.78;;;19.54;77.48
16834;BME280;8533;48.426;10.868;2023-05-23T12:31:19;95992.50;;;20.22;78.47
16834;BME280;8533;48.426;10.868;2023-05-23T12:33:47;96049.69;;;20.19;82.15
16834;BME280;8533;48.426;10.868;2023-05-23T12:36:14;96020.47;;;20.10;81.84
16834;BME280;8533;48.426;10.868;2023-05-23T12:38:41;96036.38;;;20.50;80.63
16834;BME280;8533;48.426;10.868;2023-05-23T12:41:16;96046.72;;;20.77;80.77
16834;BME280;8533;48.426;10.868;2023-05-23T12:43:52;96052.97;;;20.90;78.80
16834;BME280;8533;48.426;10.868;2023-05-23T12:46:22;96037.78;;;20.65;78.70
16834;BME280;8533;48.426;10.868;2023-05-23T12:48:48;96061.28;;;20.97;78.58
16834;BME280;8533;48.426;10.868;2023-05-23T12:51:13;96041.56;;;21.07;77.54
16834;BME280;8533;48.426;10.868;2023-05-23T12:53:39;96060.34;;;21.19;75.28
16834;BME280;8533;48.426;10.868;2023-05-23T12:56:05;96075.19;;;20.94;76.25
16834;BME280;8533;48.426;10.868;2023-05-23T12:58:30;96067.31;;;20.54;78.08
16834;BME280;8533;48.426;10.868;2023-05-23T13:00:56;96062.19;;;20.10;80.28
16834;BME280;8533;48.426;10.868;2023-05-23T13:03:22;96065.66;;;19.88;82.54
16834;BME280;8533;48.426;10.868;2023-05-23T13:05:47;96020.84;;;19.56;84.40
16834;BME280;8533;48.426;10.868;2023-05-23T13:08:12;96051.88;;;20.65;80.04
16834;BME280;8533;48.426;10.868;2023-05-23T13:10:38;96062.97;;;20.67;79.57
16834;BME280;8533;48.426;10.868;2023-05-23T13:13:03;96057.13;;;20.39;78.27
16834;BME280;8533;48.426;10.868;2023-05-23T13:15:29;96061.88;;;20.20;78.86
16834;BME280;8533;48.426;10.868;2023-05-23T13:17:55;96062.00;;;20.54;79.72
16834;BME280;8533;48.426;10.868;2023-05-23T13:20:20;96036.34;;;20.41;78.50
16834;BME280;8533;48.426;10.868;2023-05-23T13:22:46;96075.06;;;21.08;76.63